sensor_id;sensor_type;location;lat;lon;timestamp;P1;durP1;ratioP1;P2;durP2;ratioP2
11042;SDS011;5574;48.786;10.120;2023-04-30T00:01:23;2.90;;;2.70;;
11042;SDS011;5574;48.786;10.120;2023-04-30T00:03:50;3.10;;;2.90;;
11042;SDS011;5574;48.786;10.120;2023-04-30T00:06:18;4.10;;;3.80;;
11042;SDS011;5574;48.786;10.120;2023-04-30T00:08:44;3.90;;;3.57;;
11042;SDS011;5574;48.786;10.120;2023-04-30T00:11:11;3.50;;;3.20;;
11042;SDS011;5574;48.786;10.120;2023-04-30T00:13:38;3.00;;;2.80;;
11042;SDS011;5574;48.786;10.120;2023-04-30T00:16:06;3.87;;;3.20;;
11042;SDS011;5574;48.786;10.120;2023-04-30T00:18:32;4.30;;;3.23;;
11042;SDS011;5574;48.786;10.120;2023-04-30T00:20:59;4.73;;;4.13;;
11042;SDS011;5574;48.786;10.120;2023-04-30T00:23:27;4.87;;;4.33;;
11042;SDS011;5574;48.786;10.120;2023-04-30T00:25:54;4.90;;;4.40;;
11042;SDS011;5574;48.786;10.120;2023-04-30T00:28:20;4.07;;;3.67;;
11042;SDS011;5574;48.786;10.120;2023-04-30T00:30:47;4.73;;;4.20;;
11042;SDS011;5574;48.786;10.120;2023-04-30T00:33:14;4.37;;;3.50;;
11042;SDS011;5574;48.786;10.120;2023-04-30T00:35:40;4.40;;;4.00;;
11042;SDS011;5574;48.786;10.120;2023-04-30T00:38:07;4.67;;;4.20;;
11042;SDS011;5574;48.786;10.120;2023-04-30T00:40:35;4.50;;;4.10;;
11042;SDS011;5574;48.786;10.120;2023-04-30T00:43:03;4.60;;;4.20;;
11042;SDS011;5574;48.786;10.120;2023-04-30T00:45:30;4.40;;;4.00;;
11042;SDS011;5574;48.786;10.120;2023-04-30T00:47:56;4.50;;;4.10;;
11042;SDS011;5574;48.786;10.120;2023-04-30T00:50:23;5.63;;;4.13;;
11042;SDS011;5574;48.786;10.120;2023-04-30T00:52:50;5.53;;;4.30;;
11042;SDS011;5574;48.786;10.120;2023-04-30T00:55:17;5.67;;;5.17;;
11042;SDS011;5574;48.786;10.120;2023-04-30T00:57:45;5.30;;;4.80;;
11042;SDS011;5574;48.786;10.120;2023-04-30T01:00:12;6.67;;;5.60;;
11042;SDS011;5574;48.786;10.120;2023-04-30T01:02:39;5.60;;;5.10;;
11042;SDS011;5574;48.786;10.120;2023-04-30T01:05:06;5.70;;;5.20;;
11042;SDS011;5574;48.786;10.120;2023-04-30T01:07:33;5.63;;;5.10;;
11042;SDS011;5574;48.786;10.120;2023-04-30T01:10:02;6.03;;;4.80;;
11042;SDS011;5574;48.786;10.120;2023-04-30T01:12:32;5.90;;;5.30;;
11042;SDS011;5574;48.786;10.120;2023-04-30T01:15:06;6.10;;;5.50;;
11042;SDS011;5574;48.786;10.120;2023-04-30T01:17:38;6.33;;;5.73;;
11042;SDS011;5574;48.786;10.120;2023-04-30T01:20:10;6.13;;;5.53;;
11042;SDS011;5574;48.786;10.120;2023-04-30T01:22:42;6.37;;;5.77;;
11042;SDS011;5574;48.786;10.120;2023-04-30T01:25:30;6.23;;;5.63;;
11042;SDS011;5574;48.786;10.120;2023-04-30T01:28:09;6.83;;;6.13;;
11042;SDS011;5574;48.786;10.120;2023-04-30T01:30:39;6.80;;;6.10;;
11042;SDS011;5574;48.786;10.120;2023-04-30T01:33:08;6.47;;;5.80;;
11042;SDS011;5574;48.786;10.120;2023-04-30T01:35:49;6.10;;;5.50;;
11042;SDS011;5574;48.786;10.120;2023-04-30T01:38:33;6.93;;;5.93;;
11042;SDS011;5574;48.786;10.120;2023-04-30T01:41:17;6.97;;;6.23;;
11042;SDS011;5574;48.786;10.120;2023-04-30T01:43:54;6.63;;;5.83;;
11042;SDS011;5574;48.786;10.120;2023-04-30T01:46:31;6.70;;;6.00;;
11042;SDS011;5574;48.786;10.120;2023-04-30T01:49:02;6.73;;;5.73;;
11042;SDS011;5574;48.786;10.120;2023-04-30T01:51:37;6.77;;;5.90;;
11042;SDS011;5574;48.786;10.120;2023-04-30T01:54:08;6.33;;;5.73;;
11042;SDS011;5574;48.786;10.120;2023-04-30T01:56:43;6.57;;;5.87;;
11042;SDS011;5574;48.786;10.120;2023-04-30T01:59:16;5.27;;;4.77;;
11042;SDS011;5574;48.786;10.120;2023-04-30T02:01:43;5.10;;;4.70;;
11042;SDS011;5574;48.786;10.120;2023-04-30T02:04:10;5.90;;;5.30;;
11042;SDS011;5574;48.786;10.120;2023-04-30T02:06:36;7.10;;;5.10;;
11042;SDS011;5574;48.786;10.120;2023-04-30T02:09:05;5.10;;;4.60;;
11042;SDS011;5574;48.786;10.120;2023-04-30T02:11:31;5.10;;;4.60;;
11042;SDS011;5574;48.786;10.120;2023-04-30T02:13:58;5.07;;;4.53;;
11042;SDS011;5574;48.786;10.120;2023-04-30T02:16:26;5.87;;;4.73;;
11042;SDS011;5574;48.786;10.120;2023-04-30T02:18:53;5.47;;;4.87;;
11042;SDS011;5574;48.786;10.120;2023-04-30T02:21:20;5.03;;;4.53;;
11042;SDS011;5574;48.786;10.120;2023-04-30T02:23:46;5.10;;;4.60;;
11042;SDS011;5574;48.786;10.120;2023-04-30T02:26:13;5.00;;;4.60;;
11042;SDS011;5574;48.786;10.120;2023-04-30T02:28:40;5.20;;;4.70;;
11042;SDS011;5574;48.786;10.120;2023-04-30T02:31:06;5.83;;;5.33;;
11042;SDS011;5574;48.786;10.120;2023-04-30T02:33:34;5.53;;;5.03;;
11042;SDS011;5574;48.786;10.120;2023-04-30T02:36:01;4.73;;;4.33;;
11042;SDS011;5574;48.786;10.120;2023-04-30T02:38:28;5.20;;;4.70;;
11042;SDS011;5574;48.786;10.120;2023-04-30T02:40:55;5.77;;;5.17;;
11042;SDS011;5574;48.786;10.120;2023-04-30T02:43:21;5.53;;;5.03;;
11042;SDS011;5574;48.786;10.120;2023-04-30T02:45:48;6.53;;;5.23;;
11042;SDS011;5574;48.786;10.120;2023-04-30T02:48:15;6.10;;;5.50;;
11042;SDS011;5574;48.786;10.120;2023-04-30T02:50:43;5.93;;;5.33;;
11042;SDS011;5574;48.786;10.120;2023-04-30T02:53:09;5.50;;;4.97;;
11042;SDS011;5574;48.786;10.120;2023-04-30T02:55:36;6.70;;;5.57;;
11042;SDS011;5574;48.786;10.120;2023-04-30T02:58:03;6.10;;;5.40;;
11042;SDS011;5574;48.786;10.120;2023-04-30T03:00:29;6.00;;;5.40;;
11042;SDS011;5574;48.786;10.120;2023-04-30T03:02:56;5.97;;;5.33;;
11042;SDS011;5574;48.786;10.120;2023-04-30T03:05:23;6.33;;;5.77;;
11042;SDS011;5574;48.786;10.120;2023-04-30T03:07:51;7.50;;;6.27;;
11042;SDS011;5574;48.786;10.120;2023-04-30T03:10:17;6.70;;;6.00;;
11042;SDS011;5574;48.786;10.120;2023-04-30T03:12:44;7.27;;;6.57;;
11042;SDS011;5574;48.786;10.120;2023-04-30T03:15:10;6.53;;;5.90;;
11042;SDS011;5574;48.786;10.120;2023-04-30T03:17:37;7.03;;;6.00;;
11042;SDS011;5574;48.786;10.120;2023-04-30T03:20:04;7.17;;;6.40;;
11042;SDS011;5574;48.786;10.120;2023-04-30T03:22:32;7.20;;;6.50;;
11042;SDS011;5574;48.786;10.120;2023-04-30T03:25:00;8.10;;;6.70;;
11042;SDS011;5574;48.786;10.120;2023-04-30T03:27:27;7.77;;;6.97;;
11042;SDS011;5574;48.786;10.120;2023-04-30T03:29:53;7.37;;;6.67;;
11042;SDS011;5574;48.786;10.120;2023-04-30T03:32:20;7.50;;;6.80;;
11042;SDS011;5574;48.786;10.120;2023-04-30T03:34:47;7.90;;;7.10;;
11042;SDS011;5574;48.786;10.120;2023-04-30T03:37:13;7.40;;;6.70;;
11042;SDS011;5574;48.786;10.120;2023-04-30T03:39:40;7.27;;;6.50;;
11042;SDS011;5574;48.786;10.120;2023-04-30T03:42:08;7.57;;;6.70;;
11042;SDS011;5574;48.786;10.120;2023-04-30T03:44:35;8.27;;;6.73;;
11042;SDS011;5574;48.786;10.120;2023-04-30T03:47:03;7.87;;;7.07;;
11042;SDS011;5574;48.786;10.120;2023-04-30T03:49:29;7.33;;;6.60;;
11042;SDS011;5574;48.786;10.120;2023-04-30T03:51:56;7.73;;;6.93;;
11042;SDS011;5574;48.786;10.120;2023-04-30T03:54:23;9.50;;;7.23;;
11042;SDS011;5574;48.786;10.120;2023-04-30T03:56:49;7.00;;;6.33;;
11042;SDS011;5574;48.786;10.120;2023-04-30T03:59:17;7.77;;;6.97;;
11042;SDS011;5574;48.786;10.120;2023-04-30T04:01:44;8.10;;;7.30;;
11042;SDS011;5574;48.786;10.120;2023-04-30T04:04:11;7.77;;;7.07;;
11042;SDS011;5574;48.786;10.120;2023-04-30T04:06:38;7.73;;;6.90;;
11042;SDS011;5574;48.786;10.120;2023-04-30T04:09:05;6.77;;;6.07;;
11042;SDS011;5574;48.786;10.120;2023-04-30T04:11:32;7.63;;;6.93;;
11042;SDS011;5574;48.786;10.120;2023-04-30T04:13:59;8.37;;;6.83;;
11042;SDS011;5574;48.786;10.120;2023-04-30T04:16:27;7.47;;;6.73;;
11042;SDS011;5574;48.786;10.120;2023-04-30T04:18:53;7.70;;;6.90;;
11042;SDS011;5574;48.786;10.120;2023-04-30T04:21:20;7.27;;;6.47;;
11042;SDS011;5574;48.786;10.120;2023-04-30T04:23:47;7.27;;;6.50;;
11042;SDS011;5574;48.786;10.120;2023-04-30T04:26:14;7.40;;;6.40;;
11042;SDS011;5574;48.786;10.120;2023-04-30T04:28:43;6.60;;;6.00;;
11042;SDS011;5574;48.786;10.120;2023-04-30T04:31:10;6.50;;;5.90;;
11042;SDS011;5574;48.786;10.120;2023-04-30T04:33:38;7.07;;;6.10;;
11042;SDS011;5574;48.786;10.120;2023-04-30T04:36:05;6.97;;;6.27;;
11042;SDS011;5574;48.786;10.120;2023-04-30T04:38:32;6.70;;;6.03;;
11042;SDS011;5574;48.786;10.120;2023-04-30T04:40:59;6.97;;;5.63;;
11042;SDS011;5574;48.786;10.120;2023-04-30T04:43:26;7.23;;;6.53;;
11042;SDS011;5574;48.786;10.120;2023-04-30T04:45:52;7.27;;;6.43;;
11042;SDS011;5574;48.786;10.120;2023-04-30T04:48:19;7.10;;;6.10;;
11042;SDS011;5574;48.786;10.120;2023-04-30T04:50:47;7.17;;;6.40;;
11042;SDS011;5574;48.786;10.120;2023-04-30T04:53:13;6.80;;;6.20;;
11042;SDS011;5574;48.786;10.120;2023-04-30T04:55:40;7.20;;;6.50;;
11042;SDS011;5574;48.786;10.120;2023-04-30T04:58:07;7.03;;;6.33;;
11042;SDS011;5574;48.786;10.120;2023-04-30T05:00:33;7.50;;;6.80;;
11042;SDS011;5574;48.786;10.120;2023-04-30T05:03:00;9.47;;;7.00;;
11042;SDS011;5574;48.786;10.120;2023-04-30T05:05:27;7.43;;;6.73;;
11042;SDS011;5574;48.786;10.120;2023-04-30T05:07:55;7.87;;;7.07;;
11042;SDS011;5574;48.786;10.120;2023-04-30T05:10:21;8.17;;;7.37;;
11042;SDS011;5574;48.786;10.120;2023-04-30T05:12:48;8.37;;;7.23;;
11042;SDS011;5574;48.786;10.120;2023-04-30T05:15:15;8.00;;;7.20;;
11042;SDS011;5574;48.786;10.120;2023-04-30T05:17:41;9.13;;;6.93;;
11042;SDS011;5574;48.786;10.120;2023-04-30T05:20:08;7.60;;;6.90;;
11042;SDS011;5574;48.786;10.120;2023-04-30T05:22:36;7.70;;;7.00;;
11042;SDS011;5574;48.786;10.120;2023-04-30T05:25:05;7.70;;;7.00;;
11042;SDS011;5574;48.786;10.120;2023-04-30T05:27:32;7.90;;;7.20;;
11042;SDS011;5574;48.786;10.120;2023-04-30T05:29:59;7.47;;;6.77;;
11042;SDS011;5574;48.786;10.120;2023-04-30T05:32:26;7.70;;;6.90;;
11042;SDS011;5574;48.786;10.120;2023-04-30T05:34:53;8.23;;;7.43;;
11042;SDS011;5574;48.786;10.120;2023-04-30T05:37:19;8.63;;;7.47;;
11042;SDS011;5574;48.786;10.120;2023-04-30T05:39:46;7.50;;;6.80;;
11042;SDS011;5574;48.786;10.120;2023-04-30T05:42:14;7.80;;;7.00;;
11042;SDS011;5574;48.786;10.120;2023-04-30T05:44:41;10.17;;;7.33;;
11042;SDS011;5574;48.786;10.120;2023-04-30T05:47:08;7.97;;;7.17;;
11042;SDS011;5574;48.786;10.120;2023-04-30T05:49:34;7.27;;;6.57;;
11042;SDS011;5574;48.786;10.120;2023-04-30T05:52:01;9.30;;;7.70;;
11042;SDS011;5574;48.786;10.120;2023-04-30T05:54:28;8.20;;;7.40;;
11042;SDS011;5574;48.786;10.120;2023-04-30T05:56:55;8.50;;;7.27;;
11042;SDS011;5574;48.786;10.120;2023-04-30T05:59:23;8.00;;;7.20;;
11042;SDS011;5574;48.786;10.120;2023-04-30T06:01:50;8.33;;;7.53;;
11042;SDS011;5574;48.786;10.120;2023-04-30T06:04:17;8.20;;;7.40;;
11042;SDS011;5574;48.786;10.120;2023-04-30T06:06:43;8.20;;;7.20;;
11042;SDS011;5574;48.786;10.120;2023-04-30T06:09:10;8.83;;;7.43;;
11042;SDS011;5574;48.786;10.120;2023-04-30T06:11:37;8.10;;;7.30;;
11042;SDS011;5574;48.786;10.120;2023-04-30T06:14:03;7.70;;;7.00;;
11042;SDS011;5574;48.786;10.120;2023-04-30T06:16:32;8.53;;;7.63;;
11042;SDS011;5574;48.786;10.120;2023-04-30T06:18:59;8.53;;;7.73;;
11042;SDS011;5574;48.786;10.120;2023-04-30T06:21:25;8.50;;;7.57;;
11042;SDS011;5574;48.786;10.120;2023-04-30T06:23:52;8.70;;;7.60;;
11042;SDS011;5574;48.786;10.120;2023-04-30T06:26:18;9.00;;;8.10;;
11042;SDS011;5574;48.786;10.120;2023-04-30T06:28:45;8.03;;;7.30;;
11042;SDS011;5574;48.786;10.120;2023-04-30T06:31:12;8.73;;;7.83;;
11042;SDS011;5574;48.786;10.120;2023-04-30T06:33:40;9.57;;;8.20;;
11042;SDS011;5574;48.786;10.120;2023-04-30T06:36:07;8.20;;;7.50;;
11042;SDS011;5574;48.786;10.120;2023-04-30T06:38:33;8.83;;;7.93;;
11042;SDS011;5574;48.786;10.120;2023-04-30T06:41:00;8.73;;;7.83;;
11042;SDS011;5574;48.786;10.120;2023-04-30T06:43:27;9.33;;;8.20;;
11042;SDS011;5574;48.786;10.120;2023-04-30T06:45:53;9.00;;;8.13;;
11042;SDS011;5574;48.786;10.120;2023-04-30T06:48:20;8.07;;;6.90;;
11042;SDS011;5574;48.786;10.120;2023-04-30T06:50:48;8.63;;;7.53;;
11042;SDS011;5574;48.786;10.120;2023-04-30T06:53:15;8.47;;;7.67;;
11042;SDS011;5574;48.786;10.120;2023-04-30T06:55:43;8.97;;;8.17;;
11042;SDS011;5574;48.786;10.120;2023-04-30T06:58:10;9.43;;;8.50;;
11042;SDS011;5574;48.786;10.120;2023-04-30T07:00:37;9.83;;;8.83;;
11042;SDS011;5574;48.786;10.120;2023-04-30T07:03:04;8.70;;;7.80;;
11042;SDS011;5574;48.786;10.120;2023-04-30T07:05:31;8.07;;;7.20;;
11042;SDS011;5574;48.786;10.120;2023-04-30T07:08:00;8.50;;;7.60;;
11042;SDS011;5574;48.786;10.120;2023-04-30T07:10:28;8.33;;;7.50;;
11042;SDS011;5574;48.786;10.120;2023-04-30T07:12:55;7.87;;;7.10;;
11042;SDS011;5574;48.786;10.120;2023-04-30T07:15:22;9.33;;;8.07;;
11042;SDS011;5574;48.786;10.120;2023-04-30T07:17:49;8.03;;;7.23;;
11042;SDS011;5574;48.786;10.120;2023-04-30T07:20:15;8.00;;;7.20;;
11042;SDS011;5574;48.786;10.120;2023-04-30T07:22:42;8.27;;;7.40;;
11042;SDS011;5574;48.786;10.120;2023-04-30T07:25:11;7.77;;;6.90;;
11042;SDS011;5574;48.786;10.120;2023-04-30T07:27:38;8.10;;;7.30;;
11042;SDS011;5574;48.786;10.120;2023-04-30T07:30:05;8.57;;;7.10;;
11042;SDS011;5574;48.786;10.120;2023-04-30T07:32:34;7.03;;;6.33;;
11042;SDS011;5574;48.786;10.120;2023-04-30T07:35:01;7.93;;;7.23;;
11042;SDS011;5574;48.786;10.120;2023-04-30T07:37:28;7.97;;;7.17;;
11042;SDS011;5574;48.786;10.120;2023-04-30T07:39:55;7.37;;;6.67;;
11042;SDS011;5574;48.786;10.120;2023-04-30T07:42:23;7.90;;;7.10;;
11042;SDS011;5574;48.786;10.120;2023-04-30T07:44:50;7.27;;;6.67;;
11042;SDS011;5574;48.786;10.120;2023-04-30T07:47:17;7.43;;;6.53;;
11042;SDS011;5574;48.786;10.120;2023-04-30T07:49:45;9.60;;;6.90;;
11042;SDS011;5574;48.786;10.120;2023-04-30T07:52:11;7.20;;;6.55;;
11042;SDS011;5574;48.786;10.120;2023-04-30T07:54:38;7.37;;;6.67;;
11042;SDS011;5574;48.786;10.120;2023-04-30T07:57:05;7.37;;;6.67;;
11042;SDS011;5574;48.786;10.120;2023-04-30T07:59:33;5.97;;;5.45;;
11042;SDS011;5574;48.786;10.120;2023-04-30T08:02:00;7.10;;;6.40;;
11042;SDS011;5574;48.786;10.120;2023-04-30T08:04:27;5.93;;;5.43;;
11042;SDS011;5574;48.786;10.120;2023-04-30T08:06:54;6.87;;;6.27;;
11042;SDS011;5574;48.786;10.120;2023-04-30T08:09:21;7.73;;;6.20;;
11042;SDS011;5574;48.786;10.120;2023-04-30T08:11:47;6.75;;;5.80;;
11042;SDS011;5574;48.786;10.120;2023-04-30T08:14:14;4.82;;;4.28;;
11042;SDS011;5574;48.786;10.120;2023-04-30T08:16:42;4.22;;;3.80;;
11042;SDS011;5574;48.786;10.120;2023-04-30T08:19:09;4.82;;;4.32;;
11042;SDS011;5574;48.786;10.120;2023-04-30T08:21:35;5.00;;;4.47;;
11042;SDS011;5574;48.786;10.120;2023-04-30T08:24:02;5.03;;;4.40;;
11042;SDS011;5574;48.786;10.120;2023-04-30T08:26:29;4.53;;;4.13;;
11042;SDS011;5574;48.786;10.120;2023-04-30T08:28:56;5.88;;;4.70;;
11042;SDS011;5574;48.786;10.120;2023-04-30T08:31:23;6.90;;;4.18;;
11042;SDS011;5574;48.786;10.120;2023-04-30T08:33:51;4.72;;;3.92;;
11042;SDS011;5574;48.786;10.120;2023-04-30T08:36:17;4.13;;;3.75;;
11042;SDS011;5574;48.786;10.120;2023-04-30T08:38:44;4.18;;;3.70;;
11042;SDS011;5574;48.786;10.120;2023-04-30T08:41:11;4.55;;;4.10;;
11042;SDS011;5574;48.786;10.120;2023-04-30T08:43:40;4.03;;;3.72;;
11042;SDS011;5574;48.786;10.120;2023-04-30T08:46:08;4.18;;;3.70;;
11042;SDS011;5574;48.786;10.120;2023-04-30T08:48:36;7.15;;;3.72;;
11042;SDS011;5574;48.786;10.120;2023-04-30T08:51:05;4.88;;;4.38;;
11042;SDS011;5574;48.786;10.120;2023-04-30T08:53:33;5.22;;;3.60;;
11042;SDS011;5574;48.786;10.120;2023-04-30T08:56:01;6.07;;;4.40;;
11042;SDS011;5574;48.786;10.120;2023-04-30T08:58:28;4.60;;;4.20;;
11042;SDS011;5574;48.786;10.120;2023-04-30T09:00:56;4.47;;;4.07;;
11042;SDS011;5574;48.786;10.120;2023-04-30T09:03:23;5.75;;;5.10;;
11042;SDS011;5574;48.786;10.120;2023-04-30T09:05:50;5.53;;;4.93;;
11042;SDS011;5574;48.786;10.120;2023-04-30T09:08:18;5.43;;;4.95;;
11042;SDS011;5574;48.786;10.120;2023-04-30T09:11:15;4.72;;;4.32;;
11042;SDS011;5574;48.786;10.120;2023-04-30T09:13:47;4.15;;;3.55;;
11042;SDS011;5574;48.786;10.120;2023-04-30T09:16:16;4.10;;;3.70;;
11042;SDS011;5574;48.786;10.120;2023-04-30T09:18:43;4.20;;;3.78;;
11042;SDS011;5574;48.786;10.120;2023-04-30T09:21:10;4.22;;;3.85;;
11042;SDS011;5574;48.786;10.120;2023-04-30T09:23:38;3.92;;;3.53;;
11042;SDS011;5574;48.786;10.120;2023-04-30T09:26:20;4.55;;;3.80;;
11042;SDS011;5574;48.786;10.120;2023-04-30T09:28:54;3.90;;;3.60;;
11042;SDS011;5574;48.786;10.120;2023-04-30T09:31:22;3.95;;;3.53;;
11042;SDS011;5574;48.786;10.120;2023-04-30T09:33:50;4.00;;;3.70;;
11042;SDS011;5574;48.786;10.120;2023-04-30T09:36:17;4.57;;;4.18;;
11042;SDS011;5574;48.786;10.120;2023-04-30T09:38:45;4.25;;;3.85;;
11042;SDS011;5574;48.786;10.120;2023-04-30T09:41:22;4.13;;;3.80;;
11042;SDS011;5574;48.786;10.120;2023-04-30T09:43:50;4.32;;;3.67;;
11042;SDS011;5574;48.786;10.120;2023-04-30T09:46:17;3.97;;;3.58;;
11042;SDS011;5574;48.786;10.120;2023-04-30T09:48:45;7.57;;;3.75;;
11042;SDS011;5574;48.786;10.120;2023-04-30T09:51:13;4.82;;;3.20;;
11042;SDS011;5574;48.786;10.120;2023-04-30T09:53:40;4.90;;;3.55;;
11042;SDS011;5574;48.786;10.120;2023-04-30T09:56:10;3.80;;;3.50;;
11042;SDS011;5574;48.786;10.120;2023-04-30T09:58:38;4.05;;;3.75;;
11042;SDS011;5574;48.786;10.120;2023-04-30T10:01:14;4.53;;;4.13;;
11042;SDS011;5574;48.786;10.120;2023-04-30T10:03:42;4.00;;;3.70;;
11042;SDS011;5574;48.786;10.120;2023-04-30T10:06:11;4.47;;;3.60;;
11042;SDS011;5574;48.786;10.120;2023-04-30T10:08:39;4.07;;;3.78;;
11042;SDS011;5574;48.786;10.120;2023-04-30T10:11:07;4.07;;;3.67;;
11042;SDS011;5574;48.786;10.120;2023-04-30T10:13:41;3.80;;;3.50;;
11042;SDS011;5574;48.786;10.120;2023-04-30T10:16:11;6.22;;;3.50;;
11042;SDS011;5574;48.786;10.120;2023-04-30T10:18:45;4.13;;;3.45;;
11042;SDS011;5574;48.786;10.120;2023-04-30T10:21:17;3.75;;;3.45;;
11042;SDS011;5574;48.786;10.120;2023-04-30T10:23:47;4.68;;;4.28;;
11042;SDS011;5574;48.786;10.120;2023-04-30T10:26:15;4.95;;;4.55;;
11042;SDS011;5574;48.786;10.120;2023-04-30T10:28:43;5.03;;;4.63;;
11042;SDS011;5574;48.786;10.120;2023-04-30T10:31:10;4.80;;;4.40;;
11042;SDS011;5574;48.786;10.120;2023-04-30T10:33:41;4.70;;;4.30;;
11042;SDS011;5574;48.786;10.120;2023-04-30T10:36:14;4.40;;;4.10;;
11042;SDS011;5574;48.786;10.120;2023-04-30T10:38:49;4.50;;;3.70;;
11042;SDS011;5574;48.786;10.120;2023-04-30T10:41:17;4.13;;;3.75;;
11042;SDS011;5574;48.786;10.120;2023-04-30T10:43:45;4.07;;;3.78;;
11042;SDS011;5574;48.786;10.120;2023-04-30T10:46:20;5.25;;;3.95;;
11042;SDS011;5574;48.786;10.120;2023-04-30T10:48:47;6.63;;;3.78;;
11042;SDS011;5574;48.786;10.120;2023-04-30T10:51:14;4.57;;;4.10;;
11042;SDS011;5574;48.786;10.120;2023-04-30T10:53:42;4.35;;;3.90;;
11042;SDS011;5574;48.786;10.120;2023-04-30T10:56:09;4.85;;;4.18;;
11042;SDS011;5574;48.786;10.120;2023-04-30T10:58:38;4.25;;;3.85;;
11042;SDS011;5574;48.786;10.120;2023-04-30T11:01:06;4.20;;;3.80;;
11042;SDS011;5574;48.786;10.120;2023-04-30T11:03:35;3.70;;;3.40;;
11042;SDS011;5574;48.786;10.120;2023-04-30T11:06:11;3.50;;;3.20;;
11042;SDS011;5574;48.786;10.120;2023-04-30T11:08:39;3.38;;;3.08;;
11042;SDS011;5574;48.786;10.120;2023-04-30T11:11:09;4.63;;;3.45;;
11042;SDS011;5574;48.786;10.120;2023-04-30T11:13:40;3.28;;;2.97;;
11042;SDS011;5574;48.786;10.120;2023-04-30T11:16:09;3.30;;;3.00;;
11042;SDS011;5574;48.786;10.120;2023-04-30T11:18:40;3.85;;;3.42;;
11042;SDS011;5574;48.786;10.120;2023-04-30T11:21:07;3.60;;;3.30;;
11042;SDS011;5574;48.786;10.120;2023-04-30T11:23:35;3.15;;;2.83;;
11042;SDS011;5574;48.786;10.120;2023-04-30T11:26:02;4.65;;;3.67;;
11042;SDS011;5574;48.786;10.120;2023-04-30T11:28:31;4.13;;;3.50;;
11042;SDS011;5574;48.786;10.120;2023-04-30T11:31:00;4.85;;;3.40;;
11042;SDS011;5574;48.786;10.120;2023-04-30T11:33:27;3.00;;;2.72;;
11042;SDS011;5574;48.786;10.120;2023-04-30T11:35:55;3.65;;;2.95;;
11042;SDS011;5574;48.786;10.120;2023-04-30T11:38:24;3.00;;;2.70;;
11042;SDS011;5574;48.786;10.120;2023-04-30T11:40:52;3.72;;;3.10;;
11042;SDS011;5574;48.786;10.120;2023-04-30T11:43:20;3.60;;;3.30;;
11042;SDS011;5574;48.786;10.120;2023-04-30T11:46:01;3.22;;;3.03;;
11042;SDS011;5574;48.786;10.120;2023-04-30T11:48:30;3.55;;;3.25;;
11042;SDS011;5574;48.786;10.120;2023-04-30T11:50:57;3.60;;;3.30;;
11042;SDS011;5574;48.786;10.120;2023-04-30T11:53:25;3.63;;;3.33;;
11042;SDS011;5574;48.786;10.120;2023-04-30T11:55:53;3.38;;;3.08;;
11042;SDS011;5574;48.786;10.120;2023-04-30T11:58:20;3.58;;;3.28;;
11042;SDS011;5574;48.786;10.120;2023-04-30T12:00:47;6.07;;;3.40;;
11042;SDS011;5574;48.786;10.120;2023-04-30T12:03:17;3.13;;;2.90;;
11042;SDS011;5574;48.786;10.120;2023-04-30T12:05:45;5.00;;;3.03;;
11042;SDS011;5574;48.786;10.120;2023-04-30T12:08:12;3.35;;;2.70;;
11042;SDS011;5574;48.786;10.120;2023-04-30T12:10:38;2.63;;;2.42;;
11042;SDS011;5574;48.786;10.120;2023-04-30T12:13:05;3.53;;;2.72;;
11042;SDS011;5574;48.786;10.120;2023-04-30T12:15:32;3.15;;;2.85;;
11042;SDS011;5574;48.786;10.120;2023-04-30T12:17:58;2.72;;;2.53;;
11042;SDS011;5574;48.786;10.120;2023-04-30T12:20:37;3.30;;;3.00;;
11042;SDS011;5574;48.786;10.120;2023-04-30T12:23:04;4.72;;;2.97;;
11042;SDS011;5574;48.786;10.120;2023-04-30T12:25:38;3.25;;;2.95;;
11042;SDS011;5574;48.786;10.120;2023-04-30T12:28:05;2.72;;;2.53;;
11042;SDS011;5574;48.786;10.120;2023-04-30T12:30:32;2.90;;;2.70;;
11042;SDS011;5574;48.786;10.120;2023-04-30T12:32:59;3.50;;;3.20;;
11042;SDS011;5574;48.786;10.120;2023-04-30T12:35:28;3.45;;;3.15;;
11042;SDS011;5574;48.786;10.120;2023-04-30T12:38:01;2.92;;;2.70;;
11042;SDS011;5574;48.786;10.120;2023-04-30T12:40:29;3.40;;;3.10;;
11042;SDS011;5574;48.786;10.120;2023-04-30T12:42:59;3.20;;;2.95;;
11042;SDS011;5574;48.786;10.120;2023-04-30T12:45:42;3.20;;;3.00;;
11042;SDS011;5574;48.786;10.120;2023-04-30T12:48:10;4.03;;;3.30;;
11042;SDS011;5574;48.786;10.120;2023-04-30T12:50:37;3.20;;;3.00;;
11042;SDS011;5574;48.786;10.120;2023-04-30T12:53:06;2.97;;;2.78;;
11042;SDS011;5574;48.786;10.120;2023-04-30T12:55:33;3.38;;;3.08;;
11042;SDS011;5574;48.786;10.120;2023-04-30T12:58:03;3.97;;;2.85;;
11042;SDS011;5574;48.786;10.120;2023-04-30T13:00:44;3.17;;;2.90;;
11042;SDS011;5574;48.786;10.120;2023-04-30T13:03:12;3.28;;;2.97;;
11042;SDS011;5574;48.786;10.120;2023-04-30T13:05:39;3.28;;;2.97;;
11042;SDS011;5574;48.786;10.120;2023-04-30T13:08:07;3.72;;;2.90;;
11042;SDS011;5574;48.786;10.120;2023-04-30T13:10:34;4.05;;;2.80;;
11042;SDS011;5574;48.786;10.120;2023-04-30T13:13:01;3.30;;;3.00;;
11042;SDS011;5574;48.786;10.120;2023-04-30T13:15:28;3.33;;;3.03;;
11042;SDS011;5574;48.786;10.120;2023-04-30T13:17:55;3.33;;;2.90;;
11042;SDS011;5574;48.786;10.120;2023-04-30T13:20:21;3.13;;;2.72;;
11042;SDS011;5574;48.786;10.120;2023-04-30T13:22:49;2.90;;;2.70;;
11042;SDS011;5574;48.786;10.120;2023-04-30T13:25:17;5.82;;;3.10;;
11042;SDS011;5574;48.786;10.120;2023-04-30T13:27:43;3.08;;;2.88;;
11042;SDS011;5574;48.786;10.120;2023-04-30T13:30:10;3.17;;;2.97;;
11042;SDS011;5574;48.786;10.120;2023-04-30T13:32:37;3.17;;;2.88;;
11042;SDS011;5574;48.786;10.120;2023-04-30T13:35:04;2.90;;;2.70;;
11042;SDS011;5574;48.786;10.120;2023-04-30T13:37:32;3.20;;;2.90;;
11042;SDS011;5574;48.786;10.120;2023-04-30T13:39:59;3.28;;;2.97;;
11042;SDS011;5574;48.786;10.120;2023-04-30T13:42:29;3.50;;;3.17;;
11042;SDS011;5574;48.786;10.120;2023-04-30T13:44:55;2.92;;;2.72;;
11042;SDS011;5574;48.786;10.120;2023-04-30T13:47:22;3.08;;;2.65;;
11042;SDS011;5574;48.786;10.120;2023-04-30T13:49:49;3.40;;;3.10;;
11042;SDS011;5574;48.786;10.120;2023-04-30T13:52:16;3.22;;;3.00;;
11042;SDS011;5574;48.786;10.120;2023-04-30T13:54:42;3.17;;;2.97;;
11042;SDS011;5574;48.786;10.120;2023-04-30T13:57:09;3.70;;;3.22;;
11042;SDS011;5574;48.786;10.120;2023-04-30T13:59:37;3.00;;;2.80;;
11042;SDS011;5574;48.786;10.120;2023-04-30T14:02:03;3.08;;;2.88;;
11042;SDS011;5574;48.786;10.120;2023-04-30T14:04:31;2.72;;;2.53;;
11042;SDS011;5574;48.786;10.120;2023-04-30T14:06:58;5.25;;;2.92;;
11042;SDS011;5574;48.786;10.120;2023-04-30T14:09:24;3.70;;;3.28;;
11042;SDS011;5574;48.786;10.120;2023-04-30T14:11:51;2.70;;;2.50;;
11042;SDS011;5574;48.786;10.120;2023-04-30T14:14:20;3.13;;;2.92;;
11042;SDS011;5574;48.786;10.120;2023-04-30T14:16:47;2.65;;;2.55;;
11042;SDS011;5574;48.786;10.120;2023-04-30T14:19:14;2.25;;;2.15;;
11042;SDS011;5574;48.786;10.120;2023-04-30T14:21:41;2.80;;;2.60;;
11042;SDS011;5574;48.786;10.120;2023-04-30T14:24:08;3.50;;;2.53;;
11042;SDS011;5574;48.786;10.120;2023-04-30T14:26:36;3.17;;;2.70;;
11042;SDS011;5574;48.786;10.120;2023-04-30T14:29:04;2.63;;;2.42;;
11042;SDS011;5574;48.786;10.120;2023-04-30T14:31:31;2.70;;;2.47;;
11042;SDS011;5574;48.786;10.120;2023-04-30T14:33:59;2.80;;;2.53;;
11042;SDS011;5574;48.786;10.120;2023-04-30T14:36:26;3.05;;;2.42;;
11042;SDS011;5574;48.786;10.120;2023-04-30T14:38:53;2.70;;;2.50;;
11042;SDS011;5574;48.786;10.120;2023-04-30T14:41:20;2.70;;;2.50;;
11042;SDS011;5574;48.786;10.120;2023-04-30T14:43:47;2.45;;;2.22;;
11042;SDS011;5574;48.786;10.120;2023-04-30T14:46:16;2.90;;;2.70;;
11042;SDS011;5574;48.786;10.120;2023-04-30T14:48:43;3.95;;;2.72;;
11042;SDS011;5574;48.786;10.120;2023-04-30T14:51:11;3.15;;;2.47;;
11042;SDS011;5574;48.786;10.120;2023-04-30T14:53:38;3.50;;;2.72;;